地図

経路データ

SID SEASON NUMBER BASIN SUBBASIN NAME ISO_TIME NATURE LAT LON WMO_WIND WMO_PRES WMO_AGENCY TRACK_TYPE DIST2LAND LANDFALL IFLAG USA_AGENCY USA_ATCF_ID USA_LAT USA_LON USA_RECORD USA_STATUS USA_WIND USA_PRES USA_SSHS USA_R34_NE USA_R34_SE USA_R34_SW USA_R34_NW USA_R50_NE USA_R50_SE USA_R50_SW USA_R50_NW USA_R64_NE USA_R64_SE USA_R64_SW USA_R64_NW USA_POCI USA_ROCI USA_RMW USA_EYE TOKYO_LAT TOKYO_LON TOKYO_GRADE TOKYO_WIND TOKYO_PRES TOKYO_R50_DIR TOKYO_R50_LONG TOKYO_R50_SHORT TOKYO_R30_DIR TOKYO_R30_LONG TOKYO_R30_SHORT TOKYO_LAND CMA_LAT CMA_LON CMA_CAT CMA_WIND CMA_PRES HKO_LAT HKO_LON HKO_CAT HKO_WIND HKO_PRES NEWDELHI_LAT NEWDELHI_LON NEWDELHI_GRADE NEWDELHI_WIND NEWDELHI_PRES NEWDELHI_CI NEWDELHI_DP NEWDELHI_POCI REUNION_LAT REUNION_LON REUNION_TYPE REUNION_WIND REUNION_PRES REUNION_TNUM REUNION_CI REUNION_RMW REUNION_R34_NE REUNION_R34_SE REUNION_R34_SW REUNION_R34_NW REUNION_R50_NE REUNION_R50_SE REUNION_R50_SW REUNION_R50_NW REUNION_R64_NE REUNION_R64_SE REUNION_R64_SW REUNION_R64_NW BOM_LAT BOM_LON BOM_TYPE BOM_WIND BOM_PRES BOM_TNUM BOM_CI BOM_RMW BOM_R34_NE BOM_R34_SE BOM_R34_SW BOM_R34_NW BOM_R50_NE BOM_R50_SE BOM_R50_SW BOM_R50_NW BOM_R64_NE BOM_R64_SE BOM_R64_SW BOM_R64_NW BOM_ROCI BOM_POCI BOM_EYE BOM_POS_METHOD BOM_PRES_METHOD NADI_LAT NADI_LON NADI_CAT NADI_WIND NADI_PRES WELLINGTON_LAT WELLINGTON_LON WELLINGTON_WIND WELLINGTON_PRES DS824_LAT DS824_LON DS824_STAGE DS824_WIND DS824_PRES TD9636_LAT TD9636_LON TD9636_STAGE TD9636_WIND TD9636_PRES TD9635_LAT TD9635_LON TD9635_WIND TD9635_PRES TD9635_ROCI NEUMANN_LAT NEUMANN_LON NEUMANN_CLASS NEUMANN_WIND NEUMANN_PRES MLC_LAT MLC_LON MLC_CLASS MLC_WIND MLC_PRES USA_GUST BOM_GUST BOM_GUST_PER REUNION_GUST REUNION_GUST_PER USA_SEAHGT USA_SEARAD_NE USA_SEARAD_SE USA_SEARAD_SW USA_SEARAD_NW STORM_SPEED STORM_DIR
2015229N08212 2015 63 EP CP KILO 2015-08-17 06:00:00 NR 7.70000 211.600 main 1481 1475 O_____________ jtwc_cp CP032015 7.70000 -148.400 DB 20 1008 -3 1009 65 50 3 271
2015229N08212 2015 63 EP CP KILO 2015-08-17 09:00:00 NR 7.70251 211.445 main 1470 1464 P_____________ CP032015 7.70251 -148.555 DB 20 1008 -3 1009 65 50 3 270
2015229N08212 2015 63 EP CP KILO 2015-08-17 12:00:00 NR 7.70000 211.300 main 1464 1458 O_____________ jtwc_cp CP032015 7.70000 -148.700 DB 20 1008 -3 1009 65 50 3 268
2015229N08212 2015 63 EP CP KILO 2015-08-17 15:00:00 NR 7.69250 211.177 main 1458 1453 P_____________ CP032015 7.69250 -148.823 DB 20 1008 -3 1009 65 50 2 270
2015229N08212 2015 63 EP CP KILO 2015-08-17 18:00:00 NR 7.70000 211.100 main 1453 1453 O_____________ jtwc_cp CP032015 7.70000 -148.900 DB 20 1008 -3 1009 65 50 1 299
2015229N08212 2015 63 EP CP KILO 2015-08-17 21:00:00 NR 7.74250 211.085 main 1453 1443 P_____________ CP032015 7.74250 -148.915 DB 20 1007 -3 1008 65 50 1 0
2015229N08212 2015 63 EP CP KILO 2015-08-18 00:00:00 NR 7.80000 211.100 main 1443 1443 O_____________ jtwc_cp CP032015 7.80000 -148.900 DB 20 1007 -3 1008 65 50 1 0
2015229N08212 2015 63 EP CP KILO 2015-08-18 03:00:00 NR 7.85000 211.092 main 1434 1434 P_____________ CP032015 7.85000 -148.908 DB 20 1007 -3 1008 100 50 1 0
2015229N08212 2015 63 EP CP KILO 2015-08-18 06:00:00 NR 7.90000 211.100 main 1434 1428 O_____________ jtwc_cp CP032015 7.90000 -148.900 DB 20 1007 -3 1009 135 50 1 271
2015229N08212 2015 63 EP CP KILO 2015-08-18 09:00:00 NR 7.85212 211.001 main 1428 1424 P_____________ CP032015 7.85212 -148.999 DB 20 1007 -3 1008 127 47 1 43
2015229N08212 2015 63 EP CP KILO 2015-08-18 12:00:00 NR 8.00000 211.200 main 1429 1411 O_____________ jtwc_cp CP032015 8.00000 -148.800 DB 20 1007 -3 1008 120 45 15 54
2015229N08212 2015 63 EP CP KILO 2015-08-18 15:00:00 NR 8.70127 212.198 main 1417 1411 P_____________ CP032015 8.70127 -147.802 DB 20 1007 -3 1008 120 45 24 55
2015229N08212 2015 63 EP CP KILO 2015-08-18 18:00:00 NR 9.40000 213.200 main 1416 1412 O_____________ jtwc_cp CP032015 9.40000 -146.800 DB 20 1007 -3 1008 120 45 15 54
2015229N08212 2015 63 EP CP KILO 2015-08-18 21:00:00 NR 9.55450 213.393 main 1412 1412 P_____________ CP032015 9.55450 -146.607 DB 20 1007 -3 1008 120 45 1 43
2015229N08212 2015 63 EP CP KILO 2015-08-19 00:00:00 NR 9.50000 213.300 main 1414 1414 O_____________ jtwc_cp CP032015 9.50000 -146.700 DB 20 1007 -3 1008 120 45 1 213
2015229N08212 2015 63 EP CP KILO 2015-08-19 03:00:00 NR 9.50750 213.350 main 1414 1414 P_____________ CP032015 9.50750 -146.650 DB 20 1007 -3 1008 140 45 1 90
2015229N08212 2015 63 EP CP KILO 2015-08-19 06:00:00 NR 9.50000 213.400 main 1421 1421 O_____________ jtwc_cp CP032015 9.50000 -146.600 DB 20 1007 -3 1008 160 45 1 95
2015229N08212 2015 63 EP CP KILO 2015-08-19 09:00:00 NR 9.50000 213.442 main 1421 1421 P_____________ CP032015 9.50000 -146.558 DB 20 1007 -3 1008 160 45 1 90
2015229N08212 2015 63 EP CP KILO 2015-08-19 12:00:00 NR 9.50000 213.500 main 1428 1428 O_____________ jtwc_cp CP032015 9.50000 -146.500 DB 20 1007 -3 1008 160 45 1 113
2015229N08212 2015 63 EP CP KILO 2015-08-19 15:00:00 NR 9.46238 213.533 main 1428 1428 P_____________ CP032015 9.46238 -146.467 DB 20 1007 -3 1008 160 45 2 90
2015229N08212 2015 63 EP CP KILO 2015-08-19 18:00:00 NR 9.50000 213.700 main 1442 1442 O_____________ jtwc_cp CP032015 9.50000 -146.300 DB 20 1007 -3 1008 160 45 8 71
2015229N08212 2015 63 EP CP KILO 2015-08-19 21:00:00 NR 9.72776 214.319 main 1468 1467 P_____________ CP032015 9.72776 -145.681 DB 20 1007 -3 1008 140 45 11 63
2015229N08212 2015 63 EP CP KILO 2015-08-20 00:00:00 NR 10.0000 214.700 20 1007 hurdat_epa main 1473 1411 O_____________ hurdat_epa CP032015 10.0000 -145.300 DB 20 1007 -3 1008 120 45 5 332
2015229N08212 2015 63 EP CP KILO 2015-08-20 03:00:00 NR 10.1590 214.088 main 1411 1345 P_____________ CP032015 10.1653 -145.827 DB 22 1007 -3 1008 120 45 14 282
2015229N08212 2015 63 EP CP KILO 2015-08-20 06:00:00 NR 10.3000 213.300 25 1007 hurdat_epa main 1345 1287 O_____________ hurdat_epa CP032015 10.3000 -146.700 DB 25 1007 -3 1008 120 45 15 281
2015229N08212 2015 63 EP CP KILO 2015-08-20 09:00:00 NR 10.4424 212.608 main 1287 1230 P_____________ CP032015 10.4424 -147.373 DB 25 1007 -3 1009 150 52 13 283
2015229N08212 2015 63 EP CP KILO 2015-08-20 12:00:00 NR 10.6000 211.967 25 1007 hurdat_epa main 1230 1173 O_____________ hurdat_epa CP032015 10.6000 -148.000 DB 25 1007 -3 1010 180 60 12 286
2015229N08212 2015 63 EP CP KILO 2015-08-20 15:00:00 NR 10.7824 211.396 main 1173 1124 P_____________ CP032015 10.7774 -148.580 DB 25 1007 -3 1010 180 60 11 291
2015229N08212 2015 63 EP CP KILO 2015-08-20 18:00:00 TS 11.0000 210.900 25 1007 hurdat_epa main 1124 1081 O_____________ hurdat_epa CP032015 11.0000 -149.100 DB 25 1007 -3 1010 180 60 40 10 297
2015229N08212 2015 63 EP CP KILO 2015-08-20 21:00:00 TS 11.2540 210.461 main 1072 1029 P_____________ CP032015 11.2849 -149.565 DB 25 1007 -3 1010 180 60 10 303
2015229N08212 2015 63 EP CP KILO 2015-08-21 00:00:00 TS 11.5333 210.067 25 1007 hurdat_epa main 1029 978 O_____________ hurdat_epa CP032015 11.6000 -150.000 DB 25 1007 -3 1010 180 60 40 9 307
2015229N08212 2015 63 EP CP KILO 2015-08-21 03:00:00 TS 11.8115 209.701 main 978 927 P_____________ CP032015 11.8999 -150.435 DB 25 1007 -3 1010 195 60 9 307
2015229N08212 2015 63 EP CP KILO 2015-08-21 06:00:00 TS 12.1000 209.300 25 1007 hurdat_epa main 927 872 O_____________ hurdat_epa CP032015 12.2000 -150.900 DB 25 1007 -3 1010 210 60 40 11 305
2015229N08212 2015 63 EP CP KILO 2015-08-21 09:00:00 TS 12.4124 208.809 main 872 815 P_____________ CP032015 12.5149 -151.428 DB 25 1007 -3 1010 210 60 12 300
2015229N08212 2015 63 EP CP KILO 2015-08-21 12:00:00 TS 12.7000 208.233 25 1007 hurdat_epa main 809 758 O_____________ hurdat_epa CP032015 12.8000 -152.000 DB 25 1007 -3 1010 210 60 45 13 294
2015229N08212 2015 63 EP CP KILO 2015-08-21 15:00:00 TS 12.9350 207.587 main 758 706 P_____________ CP032015 13.0374 -152.593 DB 25 1007 -3 1010 210 60 14 287
2015229N08212 2015 63 EP CP KILO 2015-08-21 18:00:00 MX 13.1000 206.900 25 1007 hurdat_epa main 706 672 O_____________ hurdat_epa CP032015 13.2000 -153.200 LO 25 1007 -3 1010 210 60 45 13 281
2015229N08212 2015 63 EP CP KILO 2015-08-21 21:00:00 MX 13.2014 206.241 main 669 652 P_____________ CP032015 13.2872 -153.785 LO 25 1006 -3 1009 210 60 13 276
2015229N08212 2015 63 EP CP KILO 2015-08-22 00:00:00 MX 13.2333 205.567 25 1006 hurdat_epa main 652 641 O_____________ hurdat_epa CP032015 13.3000 -154.400 LO 25 1006 -3 1009 210 60 40 14 269
2015229N08212 2015 63 EP CP KILO 2015-08-22 03:00:00 MX 13.1699 204.854 main 641 638 P_____________ CP032015 13.2199 -155.085 LO 27 1005 -3 1009 195 75 14 267
2015229N08212 2015 63 EP CP KILO 2015-08-22 06:00:00 TS 13.1615 204.123 30 1005 hurdat_epa main 638 621 O_O___________ hurdat_epa CP032015 13.2000 -155.800 TD 30 1005 -1 1009 180 90 13.1000 204.000 1 25 1008 40 14 279
2015229N08212 2015 63 EP CP KILO 2015-08-22 09:00:00 TS 13.3938 203.405 main 623 609 P_P___________ CP032015 13.4272 -156.492 TD 30 1005 -1 1008 180 90 13.3232 -156.779 1 25 1008 15 290
2015229N08212 2015 63 EP CP KILO 2015-08-22 12:00:00 TS 13.6600 202.687 30 1005 hurdat_epa main 606 606 O_O___________ hurdat_epa CP032015 13.7000 -157.200 TD 30 1005 -1 1008 180 90 13.5000 202.500 1 25 1008 35 15 287
2015229N08212 2015 63 EP CP KILO 2015-08-22 15:00:00 TS 13.8129 201.968 main 621 619 P_P___________ CP032015 13.8223 -157.943 TD 30 1005 -1 1008 180 90 13.6195 -158.136 1 25 1008 14 282
2015229N08212 2015 63 EP CP KILO 2015-08-22 18:00:00 TS 13.9500 201.250 30 1005 hurdat_epa main 634 640 O_O___________ hurdat_epa CP032015 13.9000 -158.700 TD 30 1005 -1 1008 180 90 13.8000 201.200 1 25 1008 35 15 282
2015229N08212 2015 63 EP CP KILO 2015-08-22 21:00:00 TS 14.1217 200.508 main 672 672 P_P___________ CP032015 13.9997 -159.443 TD 30 1005 -1 1008 180 90 14.2003 -159.649 1 27 1006 15 283
2015229N08212 2015 63 EP CP KILO 2015-08-23 00:00:00 TS 14.2750 199.750 30 1005 hurdat_epa main 703 710 O_O___________ hurdat_epa CP032015 14.1000 -160.200 TD 30 1005 -1 1008 180 90 14.6000 199.500 1 29 1005 40 15 280
2015229N08212 2015 63 EP CP KILO 2015-08-23 03:00:00 TS 14.3810 198.987 main 755 755 P_P___________ CP032015 14.2074 -161.000 TD 30 1005 -1 1008 165 90 14.8019 -161.165 1 29 1005 15 277
2015229N08212 2015 63 EP CP KILO 2015-08-23 06:00:00 TS 14.4500 198.225 30 1005 hurdat_epa main 812 812 O_O___________ hurdat_epa CP032015 14.3000 -161.800 TD 30 1005 -1 1008 150 90 14.9000 198.200 1 29 1005 40 15 275
2015229N08212 2015 63 EP CP KILO 2015-08-23 09:00:00 TS 14.5099 197.456 main 870 870 P_P___________ CP032015 14.3573 -162.573 TD 30 1005 -1 1008 150 90 15.0251 -162.557 1 29 1005 15 273
2015229N08212 2015 63 EP CP KILO 2015-08-23 12:00:00 TS 14.5250 196.725 30 1005 hurdat_epa main 916 916 O_O___________ hurdat_epa CP032015 14.4000 -163.300 TD 30 1005 -1 1009 150 90 15.0000 196.700 1 29 1005 40 13 268
2015229N08212 2015 63 EP CP KILO 2015-08-23 15:00:00 TS 14.4641 196.069 main 944 944 P_P___________ CP032015 14.4498 -163.973 TD 30 1005 -1 1009 150 110 14.6571 -163.916 1 29 1005 12 264
2015229N08212 2015 63 EP CP KILO 2015-08-23 18:00:00 TS 14.4000 195.450 30 1005 hurdat_epa main 984 984 O_O___________ hurdat_epa CP032015 14.5000 -164.600 TD 30 1005 -1 1009 150 130 14.3000 195.500 1 29 1005 40 12 267
2015229N08212 2015 63 EP CP KILO 2015-08-23 21:00:00 TS 14.3894 194.793 main 1023 1023 P_P___________ CP032015 14.5274 -165.223 TD 30 1005 -1 1009 150 130 14.2252 -165.187 1 29 1005 12 272
2015229N08212 2015 63 EP CP KILO 2015-08-24 00:00:00 TS 14.4500 194.200 30 1005 hurdat_epa main 1051 1051 O_O___________ hurdat_epa CP032015 14.6000 -165.800 TD 30 1005 -1 1009 150 130 14.3000 194.200 1 29 1005 40 11 280
2015229N08212 2015 63 EP CP KILO 2015-08-24 03:00:00 TS 14.5705 193.726 main 1074 1073 P_P___________ CP032015 14.7550 -166.360 TD 30 1005 -1 1008 150 125 14.3896 -166.180 1 29 1005 9 293
2015229N08212 2015 63 EP CP KILO 2015-08-24 06:00:00 TS 14.8000 193.350 30 1005 hurdat_epa main 1078 1074 O_O___________ hurdat_epa CP032015 15.0000 -166.800 TD 30 1005 -1 1008 150 120 14.6000 193.500 1 29 1005 40 9 309
2015229N08212 2015 63 EP CP KILO 2015-08-24 09:00:00 TS 15.1463 192.988 main 1082 1057 P_P___________ CP032015 15.3198 -167.075 TD 30 1005 -1 1008 150 105 14.9477 -166.995 1 29 1005 10 323
2015229N08212 2015 63 EP CP KILO 2015-08-24 12:00:00 TS 15.5750 192.750 30 1005 hurdat_epa main 1057 1035 O_O___________ hurdat_epa CP032015 15.7000 -167.200 TD 30 1005 -1 1008 150 90 15.4000 192.600 1 29 1005 40 9 342
2015229N08212 2015 63 EP CP KILO 2015-08-24 15:00:00 TS 16.0230 192.687 main 1035 998 P_P___________ CP032015 16.0925 -167.230 TD 30 1005 -1 1008 150 90 15.8998 -167.540 1 29 1005 9 0
2015229N08212 2015 63 EP CP KILO 2015-08-24 18:00:00 TS 16.4750 192.725 30 1005 hurdat_epa main 998 962 O_O___________ hurdat_epa CP032015 16.5000 -167.200 TD 30 1005 -1 1008 150 90 16.4000 192.500 1 29 1005 40 9 4
2015229N08212 2015 63 EP CP KILO 2015-08-24 21:00:00 TS 16.8881 192.762 main 962 936 P_P___________ CP032015 16.9075 -167.200 TD 27 1005 -1 1008 150 75 16.8151 -167.350 1 29 1005 8 5
2015229N08212 2015 63 EP CP KILO 2015-08-25 00:00:00 TS 17.2750 192.800 25 1006 hurdat_epa main 936 910 O_O___________ hurdat_epa CP032015 17.3000 -167.200 TD 25 1006 -1 1008 150 60 17.2000 192.800 1 29 1005 35 8 2
2015229N08212 2015 63 EP CP KILO 2015-08-25 03:00:00 TS 17.6750 192.791 main 910 893 P_P___________ CP032015 17.6875 -167.200 TD 25 1006 -1 1008 150 60 17.6375 -167.235 1 29 1005 7 359
2015229N08212 2015 63 EP CP KILO 2015-08-25 06:00:00 TS 18.0000 192.775 25 1006 hurdat_epa main 893 881 O_O___________ hurdat_epa CP032015 18.0000 -167.200 TD 25 1006 -1 1008 150 60 18.0000 192.700 1 29 1005 35 5 0
2015229N08212 2015 63 EP CP KILO 2015-08-25 09:00:00 TS 18.1894 192.786 main 881 876 P_P___________ CP032015 18.1875 -167.200 TD 25 1006 -1 1008 150 60 18.1950 -167.258 1 29 1005 3 0
2015229N08212 2015 63 EP CP KILO 2015-08-25 12:00:00 TS 18.3000 192.800 25 1006 hurdat_epa main 876 870 O_O___________ hurdat_epa CP032015 18.3000 -167.200 TD 25 1006 -1 1008 150 60 18.3000 192.800 1 29 1005 35 2 0
2015229N08212 2015 63 EP CP KILO 2015-08-25 15:00:00 TS 18.4075 192.807 main 870 865 P_P___________ CP032015 18.4075 -167.193 TD 25 1006 -1 1008 150 75 18.4150 -167.185 1 29 1005 2 8
2015229N08212 2015 63 EP CP KILO 2015-08-25 18:00:00 TS 18.5000 192.800 25 1006 hurdat_epa main 865 860 O_O___________ hurdat_epa CP032015 18.5000 -167.200 TD 25 1006 -1 1008 150 90 18.5000 192.800 1 29 1005 35 2 349
2015229N08212 2015 63 EP CP KILO 2015-08-25 21:00:00 TS 18.6094 192.776 main 860 854 P_P___________ CP032015 18.6150 -167.235 TD 27 1005 -1 1008 150 90 18.5575 -167.235 1 29 1005 2 340
2015229N08212 2015 63 EP CP KILO 2015-08-26 00:00:00 TS 18.7000 192.725 30 1005 hurdat_epa main 864 859 O_O___________ hurdat_epa CP032015 18.7000 -167.300 TD 30 1005 -1 1008 150 90 18.6000 192.700 1 29 1005 40 2 321
2015229N08212 2015 63 EP CP KILO 2015-08-26 03:00:00 TS 18.7656 192.641 main 868 868 P_P___________ CP032015 18.7300 -167.400 TD 30 1005 -1 1008 165 80 18.6650 -167.400 1 29 1005 2 294
2015229N08212 2015 63 EP CP KILO 2015-08-26 06:00:00 TS 18.7750 192.550 30 1005 hurdat_epa main 868 878 O_O___________ hurdat_epa CP032015 18.7000 -167.500 TD 30 1005 -1 1008 180 70 18.7000 192.500 1 29 1005 40 2 251
2015229N08212 2015 63 EP CP KILO 2015-08-26 09:00:00 TS 18.7119 192.482 main 883 883 P_P___________ CP032015 18.6150 -167.558 TD 30 1005 -1 1008 195 70 18.6725 -167.558 1 29 1005 2 215
2015229N08212 2015 63 EP CP KILO 2015-08-26 12:00:00 TS 18.6000 192.425 30 1005 hurdat_epa main 897 897 O_O___________ hurdat_epa CP032015 18.5000 -167.600 TD 30 1005 -1 1009 210 70 18.6000 192.400 1 29 1005 40 3 204
2015229N08212 2015 63 EP CP KILO 2015-08-26 15:00:00 TS 18.4806 192.375 main 902 902 P_P___________ CP032015 18.4000 -167.650 TD 32 1004 -1 1008 210 50 18.5150 -167.650 1 31 1003 3 201
2015229N08212 2015 63 EP CP KILO 2015-08-26 18:00:00 TS 18.3500 192.325 35 1004 hurdat_epa main 917 922 O_O___________ hurdat_epa CP032015 18.3000 -167.700 TS 35 1004 0 30 30 1008 210 30 18.4000 192.300 2 34 1002 45 3 201
2015229N08212 2015 63 EP CP KILO 2015-08-26 21:00:00 TS 18.2138 192.262 main 927 927 P_P___________ CP032015 18.1925 -167.750 TS 37 1003 0 35 35 1008 210 30 18.2425 -167.750 2 39 1000 3 205
2015229N08212 2015 63 EP CP KILO 2015-08-27 00:00:00 TS 18.1000 192.200 40 1003 hurdat_epa main 942 942 O_O___________ hurdat_epa CP032015 18.1000 -167.800 TS 40 1003 0 20 40 40 20 1008 210 30 18.1000 192.200 2 44 998 55 2 212
2015229N08212 2015 63 EP CP KILO 2015-08-27 03:00:00 TS 18.0387 192.150 main 947 947 P_P___________ CP032015 18.0425 -167.850 TS 42 1002 0 25 40 40 25 1008 210 25 18.0350 -167.842 2 44 998 1 223
2015229N08212 2015 63 EP CP KILO 2015-08-27 06:00:00 TS 18.0000 192.100 45 1001 hurdat_epa main 956 956 O_O___________ hurdat_epa CP032015 18.0000 -167.900 TS 45 1001 0 30 40 40 30 1008 210 20 18.0000 192.100 2 44 998 55 12 20 40 40 20 1 227
2015229N08212 2015 63 EP CP KILO 2015-08-27 09:00:00 TS 17.9575 192.053 main 956 956 P_P___________ CP032015 17.9575 -167.935 TS 47 998 0 35 45 45 35 1008 210 17 17.9575 -167.985 2 49 994 12 25 40 40 25 2 229
2015229N08212 2015 63 EP CP KILO 2015-08-27 12:00:00 TS 17.9000 191.975 50 996 hurdat_epa main 971 971 O_O___________ hurdat_epa CP032015 17.9000 -168.000 TS 50 996 0 40 50 50 40 15 15 15 15 1008 210 15 17.9000 191.900 3 54 990 65 12 30 40 40 30 2 231
2015229N08212 2015 63 EP CP KILO 2015-08-27 15:00:00 TS 17.8075 191.851 main 986 986 P_P___________ CP032015 17.8075 -168.120 TS 52 994 0 50 50 50 50 17 15 15 17 1008 210 12 17.8075 -168.235 3 56 987 12 40 45 45 40 3 235
2015229N08212 2015 63 EP CP KILO 2015-08-27 18:00:00 TS 17.7000 191.675 55 992 hurdat_epa main 1010 1010 O_O___________ hurdat_epa CP032015 17.7000 -168.300 TS 55 992 0 60 50 50 60 20 15 15 20 1008 210 10 17.7000 191.600 3 58 985 75 12 50 50 50 50 4 240
2015229N08212 2015 63 EP CP KILO 2015-08-27 21:00:00 TS 17.5943 191.467 main 1034 1034 P_P___________ CP032015 17.5925 -168.520 TS 57 991 0 60 50 50 60 20 15 15 20 1008 210 15 17.5999 -168.570 3 58 985 12 50 50 50 50 5 246
2015229N08212 2015 63 EP CP KILO 2015-08-28 00:00:00 TS 17.5000 191.200 60 990 hurdat_epa main 1067 1067 O_O___________ hurdat_epa CP032015 17.5000 -168.800 TS 60 990 0 60 50 50 60 20 15 15 20 1008 210 20 17.5000 191.200 3 58 985 75 12 50 50 50 50 6 253
2015229N08212 2015 63 EP CP KILO 2015-08-28 03:00:00 TS 17.4224 190.882 main 1100 1100 P_P___________ CP032015 17.4349 -169.120 TS 60 990 0 60 50 50 60 20 15 15 20 1008 210 20 17.3850 -169.113 3 58 985 12 62 55 70 70 7 259
2015229N08212 2015 63 EP CP KILO 2015-08-28 06:00:00 TS 17.3750 190.500 60 990 hurdat_epa main 1137 1137 O_O___________ hurdat_epa CP032015 17.4000 -169.500 TS 60 990 0 60 50 50 60 20 15 15 20 1008 210 20 17.3000 190.500 3 58 985 75 12 75 60 90 90 8 265
2015229N08212 2015 63 EP CP KILO 2015-08-28 09:00:00 TS 17.3562 190.065 main 1175 1175 P_P___________ CP032015 17.3850 -169.935 TS 60 990 0 70 50 50 70 27 20 17 30 1008 210 22 17.2700 -169.935 3 58 985 12 97 70 75 105 9 270
2015229N08212 2015 63 EP CP KILO 2015-08-28 12:00:00 TS 17.3750 189.600 60 990 hurdat_epa main 1222 1222 O_O___________ hurdat_epa CP032015 17.4000 -170.400 TS 60 990 0 80 50 50 80 35 25 20 40 1008 210 25 17.3000 189.600 3 58 985 75 12 120 80 60 120 9 275
2015229N08212 2015 63 EP CP KILO 2015-08-28 15:00:00 TS 17.4299 189.143 main 1270 1270 P_P___________ CP032015 17.4424 -170.857 TS 60 990 0 80 50 50 80 35 25 20 40 1008 210 25 17.3924 -170.857 3 58 985 12 120 80 60 120 9 278
2015229N08212 2015 63 EP CP KILO 2015-08-28 18:00:00 TS 17.5000 188.700 60 990 hurdat_epa main 1303 1303 O_O___________ hurdat_epa CP032015 17.5000 -171.300 TS 60 990 0 80 50 50 80 35 25 20 40 1008 210 25 17.5000 188.700 3 58 985 75 12 120 80 60 120 8 279
2015229N08212 2015 63 EP CP KILO 2015-08-28 21:00:00 TS 17.5517 188.296 main 1338 1338 P_P___________ CP032015 17.5498 -171.700 TS 60 990 0 80 50 60 85 35 22 22 40 1008 210 25 17.5574 -171.708 3 61 982 12 120 80 60 120 8 277
2015229N08212 2015 63 EP CP KILO 2015-08-29 00:00:00 TS 17.6000 187.900 60 990 hurdat_epa main 1377 1377 O_O___________ hurdat_epa CP032015 17.6000 -172.100 TS 60 990 0 80 50 70 90 35 20 25 40 1008 210 25 17.6000 187.900 4 64 980 75 12 120 80 60 120 8 277
2015229N08212 2015 63 EP CP KILO 2015-08-29 03:00:00 TS 17.6461 187.486 main 1416 1416 P_P___________ CP032015 17.6499 -172.543 TS 62 987 0 90 52 70 95 40 20 25 47 1008 210 25 17.6423 -172.485 4 66 977 12 135 90 75 127 8 277
2015229N08212 2015 63 EP CP KILO 2015-08-29 06:00:00 TS 17.7000 187.050 65 985 hurdat_epa main 1451 1461 O_O___________ hurdat_epa CP032015 17.7000 -173.000 HU 65 985 1 100 55 70 100 45 20 25 55 25 25 1008 210 25 17.7000 187.100 4 68 975 80 12 150 100 90 135 9 279
2015229N08212 2015 63 EP CP KILO 2015-08-29 09:00:00 TS 17.7768 186.583 main 1496 1496 P_P___________ CP032015 17.7499 -173.450 HU 72 980 1 100 57 70 100 50 20 25 55 27 27 1008 210 25 17.8000 -173.385 4 74 967 12 150 100 90 135 9 279
2015229N08212 2015 63 EP CP KILO 2015-08-29 12:00:00 TS 17.8500 186.100 80 976 hurdat_epa main 1542 1542 O_O___________ hurdat_epa CP032015 17.8000 -173.900 HU 80 976 1 100 60 70 100 55 20 25 55 30 30 1008 210 25 17.9000 186.100 5 81 960 100 12 150 100 90 135 9 277
2015229N08212 2015 63 EP CP KILO 2015-08-29 15:00:00 TS 17.8856 185.617 main 1592 1592 P_P___________ CP032015 17.8424 -174.350 HU 95 964 2 105 70 70 105 57 30 27 57 35 35 1008 210 22 17.9575 -174.415 5 91 952 12 150 100 90 135 9 275
2015229N08212 2015 63 EP CP KILO 2015-08-29 18:00:00 TS 17.9250 185.150 110 952 hurdat_epa main 1632 1632 O_O___________ hurdat_epa CP032015 17.9000 -174.800 HU 110 952 3 110 80 70 110 60 40 30 60 40 30 20 40 1008 210 20 18.0000 185.100 6 101 945 135 12 150 100 90 135 9 278
2015229N08212 2015 63 EP CP KILO 2015-08-29 21:00:00 TS 18.0030 184.710 main 1679 1679 P_P___________ CP032015 17.9925 -175.265 HU 112 950 3 115 85 75 115 65 45 35 65 40 30 20 40 1008 210 20 18.0423 -175.315 6 106 937 12 155 110 100 147 8 282
2015229N08212 2015 63 EP CP KILO 2015-08-30 00:00:00 TS 18.1000 184.300 115 948 hurdat_epa main 1715 1715 O_O___________ hurdat_epa CP032015 18.1000 -175.700 HU 115 948 4 120 90 80 120 70 50 40 70 40 30 20 40 1008 210 20 18.1000 184.300 6 112 930 140 12 160 120 110 160 8 284
2015229N08212 2015 63 EP CP KILO 2015-08-30 03:00:00 TS 18.1905 183.910 main 1753 1753 P_P___________ CP032015 18.1924 -176.073 HU 117 944 4 127 112 90 122 77 57 45 77 50 35 25 47 1007 210 20 18.1850 -176.108 6 112 930 12 190 125 135 190 7 286
2015229N08212 2015 63 EP CP KILO 2015-08-30 06:00:00 TS 18.3000 183.550 120 940 hurdat_epa main 1790 1790 O_O___________ hurdat_epa CP032015 18.3000 -176.400 HU 120 940 4 135 135 100 125 85 65 50 85 60 40 30 55 1007 210 20 18.3000 183.500 6 112 930 145 12 220 130 160 220 7 290
2015229N08212 2015 63 EP CP KILO 2015-08-30 09:00:00 TS 18.4312 183.212 main 1817 1814 P_P___________ CP032015 18.4424 -176.708 HU 117 943 4 130 125 77 112 77 55 42 77 55 37 27 52 1007 210 20 18.4199 -176.865 6 112 930 12 230 130 160 230 7 296
2015229N08212 2015 63 EP CP KILO 2015-08-30 12:00:00 TS 18.6000 182.900 115 946 hurdat_epa main 1842 1842 O_O___________ hurdat_epa CP032015 18.6000 -177.000 HU 115 946 4 125 115 55 100 70 45 35 70 50 35 25 50 1008 210 20 18.6000 182.800 6 112 930 145 12 240 130 160 240 7 303
2015229N08212 2015 63 EP CP KILO 2015-08-30 15:00:00 TS 18.8025 182.599 main 1867 1867 P_P___________ CP032015 18.7200 -177.308 HU 112 949 3 117 112 52 95 65 52 37 60 45 37 22 40 1008 195 20 18.8850 -177.515 6 109 935 12 220 155 160 220 7 310
2015229N08212 2015 63 EP CP KILO 2015-08-30 18:00:00 TS 19.0500 182.325 110 952 hurdat_epa main 1890 1890 O_O___________ hurdat_epa CP032015 18.9000 -177.600 HU 110 952 3 110 110 50 90 60 60 40 50 40 40 20 30 1008 180 20 19.2000 182.200 6 106 940 135 12 200 180 160 200 7 317
2015229N08212 2015 63 EP CP KILO 2015-08-30 21:00:00 TS 19.3350 182.072 main 1905 1903 P_P___________ CP032015 19.2200 -177.865 HU 110 952 3 125 100 55 105 60 50 40 50 35 30 20 30 1008 180 20 19.4500 -178.080 6 106 940 12 200 165 160 200 8 323
2015229N08212 2015 63 EP CP KILO 2015-08-31 00:00:00 TS 19.6500 181.850 110 952 hurdat_epa main 1917 1917 O_O___________ hurdat_epa CP032015 19.6000 -178.100 HU 110 952 3 140 90 60 120 60 40 40 50 30 20 20 30 1008 180 20 19.7000 181.700 6 106 940 135 12 200 150 160 200 7 328
2015229N08212 2015 63 EP CP KILO 2015-08-31 03:00:00 TS 19.9637 181.659 main 1931 1931 P_P___________ CP032015 19.9500 -178.315 HU 107 954 3 140 95 60 120 60 42 40 50 30 22 20 30 1008 180 20 19.9774 -178.393 6 106 940 7 332
2015229N08212 2015 63 EP CP KILO 2015-08-31 06:00:00 TS 20.3000 181.475 105 956 hurdat_epa main 1946 1946 O_O___________ hurdat_epa CP032015 20.3000 -178.500 HU 105 956 3 140 100 60 120 60 45 40 50 30 25 20 30 1009 180 20 20.3000 181.500 6 106 940 140 8 333
2015229N08212 2015 63 EP CP KILO 2015-08-31 09:00:00 TS 20.6788 181.264 main 1961 1961 P_P___________ CP032015 20.6574 -178.650 HU 102 957 3 140 105 65 115 65 52 40 55 32 27 20 30 1009 180 20 20.7001 -178.777 6 106 940 9 332
2015229N08212 2015 63 EP CP KILO 2015-08-31 12:00:00 TS 21.0500 181.050 100 959 hurdat_epa main 1976 1985 O_O___________ hurdat_epa CP032015 21.0000 -178.800 HU 100 959 3 140 110 70 110 70 60 40 60 35 30 20 30 1009 180 20 21.1000 180.900 6 106 940 140 12 240 160 240 260 8 330
2015229N08212 2015 63 EP CP KILO 2015-08-31 15:00:00 TS 21.3650 180.835 main 2003 2002 P_P___________ CP032015 21.3075 -179.000 HU 100 959 3 140 110 70 110 70 60 40 60 35 30 20 30 1009 195 20 21.4225 -179.380 6 106 940 12 235 170 240 260 7 328
2015229N08212 2015 63 EP CP KILO 2015-08-31 18:00:00 TS 21.6500 180.650 100 959 hurdat_epa main 2010 2011 O_O___________ hurdat_epa CP032015 21.6000 -179.200 HU 100 959 3 140 110 70 110 70 60 40 60 35 30 20 30 1010 210 20 21.7000 180.400 6 106 940 140 12 230 180 240 260 6 331
2015229N08212 2015 63 EP CP KILO 2015-08-31 21:00:00 TS 21.9231 180.507 main 2029 2028 P_P___________ CP032015 21.9000 -179.373 HU 100 959 3 135 110 90 110 65 57 45 55 32 27 20 27 1010 210 20 21.9424 -179.753 6 103 942 12 230 180 240 260 6 339
2015229N08212 2015 63 EP CP KILO 2015-09-01 00:00:00 TS 22.2000 180.425 100 959 hurdat_epa main 2037 2036 O_O___________ hurdat_epa CP032015 22.2000 -179.500 HU 100 959 3 130 110 110 110 60 55 50 50 30 25 20 25 1010 210 20 22.2000 180.200 6 101 945 135 12 230 180 240 260 6 353
2015229N08212 2015 63 EP CP KILO 2015-09-01 03:00:00 TS 22.5181 180.427 main 2036 2035 P_P___________ CP032015 22.5075 -179.550 HU 100 959 3 130 110 110 110 60 55 50 50 30 25 20 25 1010 210 20 22.5500 -179.708 6 101 945 6 2
2015229N08212 2015 63 EP CP KILO 2015-09-01 06:00:00 TS 22.8250 180.425 100 959 hurdat_epa main 2035 2034 O_O___________ hurdat_epa CP032015 22.8000 -179.600 HU 100 959 3 130 110 110 110 60 55 50 50 30 25 20 25 1010 210 20 22.9000 180.400 6 101 945 6 350
2015229N08212 2015 63 EP CP KILO 2015-09-01 09:00:00 TS 23.0831 180.319 main 2044 2044 P_P___________ CP032015 23.0725 -179.742 HU 100 959 3 130 110 110 110 60 55 50 50 30 25 20 25 1010 210 20 23.1725 -179.612 6 99 945 5 334
2015229N08212 2015 63 EP CP KILO 2015-09-01 12:00:00 TS 23.3000 180.175 100 959 hurdat_epa main 2055 2055 O_O___________ hurdat_epa CP032015 23.3000 -179.900 HU 100 959 3 130 110 110 110 60 55 50 50 30 25 20 25 1010 210 20 23.4000 180.300 5 97 945 5 329
2015229N08212 2015 63 EP CP KILO 2015-09-01 15:00:00 TS 23.4825 180.052 main 2065 2065 P_P___________ CP032015 23.4575 180.000 HU 95 962 2 130 110 110 110 60 55 50 50 30 25 20 25 1010 210 20 23.6150 -179.842 5 95 947 4 329
2015229N08212 2015 63 WP MM KILO 2015-09-01 18:00:00 TS 23.6611 179.933 main 2086 2086 OOOO__________ hurdat_epa CP032015 23.6000 179.900 TY 90 965 2 130 110 110 110 60 55 50 50 30 25 20 25 1010 210 20 23.7000 180.100 7 90 945 2 60 40 2 150 100 0 23.8000 180.000 5 93 950 23.8000 179.900 ST 85 950 4 330
2015229N08212 2015 63 WP MM KILO 2015-09-01 21:00:00 TS 23.8497 179.818 main 2096 2096 PPPP__________ CP032015 23.8075 179.765 TY 87 966 2 130 110 110 110 60 55 50 50 30 25 20 25 1010 210 20 23.8350 179.962 7 85 947 2 60 50 2 150 110 23.9574 179.907 5 90 950 23.8875 179.825 ST 82 952 4 327
2015229N08212 2015 63 WP MM KILO 2015-09-02 00:00:00 TS 24.0182 179.677 80 950 tokyo main 2107 2107 OOOO__________ hurdat_epa CP032015 24.0000 179.600 TY 85 968 2 130 110 110 110 60 55 50 50 30 25 20 25 1010 210 20 24.0000 179.800 5 80 950 9 60 60 1 150 120 0 24.1000 179.800 5 87 950 24.0000 179.700 T 80 955 4 316
2015229N08212 2015 63 WP MM KILO 2015-09-02 03:00:00 TS 24.1563 179.493 main 2128 2128 PPPP__________ CP032015 24.1075 179.415 TY 82 970 1 130 110 110 110 60 55 50 50 30 25 20 25 1010 210 20 24.2075 179.600 5 80 950 9 60 60 1 150 120 24.2575 179.615 5 84 952 24.1501 179.500 T 80 955 4 306
2015229N08212 2015 63 WP MM KILO 2015-09-02 06:00:00 TS 24.2833 179.283 80 950 tokyo main 2149 2149 OOOO__________ hurdat_epa CP032015 24.2000 179.200 TY 80 972 1 130 110 110 110 60 55 50 50 30 25 20 25 1010 210 20 24.4000 179.400 5 80 950 9 60 60 8 150 120 0 24.4000 179.400 5 81 955 24.3000 179.300 T 80 955 5 305
2015229N08212 2015 63 WP MM KILO 2015-09-02 09:00:00 TS 24.4171 179.087 main 2169 2169 PPPP__________ CP032015 24.3500 178.950 TY 80 972 1 130 110 110 110 60 55 50 50 30 25 20 25 1010 210 20 24.5299 179.265 5 75 957 9 60 60 8 150 120 24.5150 179.200 5 79 957 24.4074 179.207 T 77 957 4 304
2015229N08212 2015 63 WP MM KILO 2015-09-02 12:00:00 TS 24.5333 178.883 70 965 tokyo main 2190 2190 OOOO__________ hurdat_epa CP032015 24.5000 178.700 TY 80 972 1 130 110 110 110 60 55 50 50 30 25 20 25 1010 210 20 24.6000 179.100 5 70 965 9 60 60 8 150 120 0 24.6000 179.000 4 77 960 24.5000 179.100 T 75 960 5 298
2015229N08212 2015 63 WP MM KILO 2015-09-02 15:00:00 TS 24.6259 178.648 main 2221 2221 PPPP__________ CP032015 24.6225 178.477 TY 80 971 1 130 115 110 120 62 60 57 60 35 30 27 32 1010 202 15 24.6077 178.800 5 70 965 9 65 55 8 150 120 24.6650 178.800 4 77 960 24.6151 178.858 T 72 962 4 290
2015229N08212 2015 63 WP MM KILO 2015-09-02 18:00:00 TS 24.6833 178.433 70 965 tokyo main 2242 2242 OOOO__________ hurdat_epa CP032015 24.7000 178.300 TY 80 971 1 130 120 110 130 65 65 65 70 40 35 35 40 1010 195 10 10 24.6000 178.500 5 70 965 8 70 50 7 150 120 0 24.7000 178.600 4 77 960 24.7000 178.600 T 70 965 3 285
2015229N08212 2015 63 WP MM KILO 2015-09-02 21:00:00 TS 24.7129 178.281 main 2252 2252 PPPP__________ CP032015 24.7300 178.185 TY 82 969 1 122 115 110 122 70 60 45 67 37 32 20 37 1010 195 10 24.6574 178.313 5 70 965 8 70 50 7 150 135 24.7150 178.385 4 77 960 24.7149 178.435 T 70 965 2 274
2015229N08212 2015 63 WP MM KILO 2015-09-03 00:00:00 TS 24.7000 178.167 70 965 tokyo main 2262 2262 OOOO__________ hurdat_epa CP032015 24.7000 178.100 TY 85 967 2 115 110 110 115 75 55 25 65 35 30 5 35 1011 195 10 10 24.7000 178.200 5 70 965 8 70 50 9 150 150 0 24.7000 178.200 4 77 960 24.7000 178.300 T 70 965 2 252
2015229N08212 2015 63 WP MM KILO 2015-09-03 03:00:00 TS 24.6496 178.067 main 2272 2272 PPPP__________ CP032015 24.6150 178.008 TY 87 965 2 115 110 110 115 75 55 25 65 35 27 5 35 1011 195 10 24.6724 178.158 5 70 965 8 70 50 9 150 150 24.6650 178.085 4 77 960 24.7150 178.135 T 70 965 2 233
2015229N08212 2015 63 WP MM KILO 2015-09-03 06:00:00 TS 24.5667 177.967 70 965 tokyo main 2282 2282 OOOO__________ hurdat_epa CP032015 24.5000 177.900 TY 90 963 2 115 110 110 115 75 55 25 65 35 25 5 35 1011 195 10 24.6000 178.100 5 70 965 8 70 50 9 150 150 0 24.6000 178.000 4 77 960 24.7000 178.000 T 70 965 3 230
2015229N08212 2015 63 WP MM KILO 2015-09-03 09:00:00 TS 24.4779 177.842 main 2301 2301 PPPP__________ CP032015 24.4075 177.765 TY 87 965 2 115 112 110 115 75 55 25 65 35 25 5 35 1011 195 12 24.5151 177.907 5 70 965 8 70 50 9 150 150 24.5150 177.908 4 77 960 24.6150 177.943 T 70 965 3 231
2015229N08212 2015 63 WP MM KILO 2015-09-03 12:00:00 TS 24.3667 177.700 70 965 tokyo main 2311 2311 OOOO__________ hurdat_epa CP032015 24.3000 177.600 TY 85 968 2 115 115 110 115 75 55 25 65 35 25 5 35 1011 195 15 24.4000 177.700 5 70 965 8 70 50 9 150 150 0 24.4000 177.800 4 77 960 24.5000 177.900 T 70 965 4 226
2015229N08212 2015 63 WP MM KILO 2015-09-03 15:00:00 TS 24.2337 177.560 main 2320 2320 PPPP__________ CP032015 24.1575 177.415 TY 82 970 1 115 110 95 110 62 55 42 62 35 30 20 35 1010 195 15 24.2574 177.600 5 70 965 8 70 50 9 150 150 24.2500 177.665 4 77 960 24.4223 177.853 T 70 965 4 225
2015229N08212 2015 63 WP MM KILO 2015-09-03 18:00:00 TS 24.0833 177.383 70 965 tokyo main 2341 2341 OOOO__________ hurdat_epa CP032015 24.0000 177.200 TY 80 972 1 115 105 80 105 50 55 60 60 35 35 35 35 1010 195 15 24.1000 177.500 5 70 965 8 70 50 9 150 150 0 24.1000 177.500 4 77 960 24.3000 177.700 T 70 965 5 230
2015229N08212 2015 63 WP MM KILO 2015-09-03 21:00:00 TS 23.9150 177.140 main 2371 2371 PPPP__________ CP032015 23.8350 176.957 TY 77 973 1 115 102 82 112 57 57 57 60 35 32 32 35 1009 192 15 23.9425 177.322 5 67 967 8 85 55 9 165 135 23.9925 177.315 4 75 962 24.0503 177.330 T 70 965 6 236
2015229N08212 2015 63 WP MM KILO 2015-09-04 00:00:00 TS 23.7667 176.867 65 970 tokyo main 2391 2391 OOOO__________ hurdat_epa CP032015 23.7000 176.700 TY 75 975 1 115 100 85 120 65 60 55 60 35 30 30 35 1009 190 15 23.8000 177.100 5 65 970 7 100 60 7 180 120 0 23.9000 177.100 4 73 965 23.8000 176.900 T 70 965 5 243
2015229N08212 2015 63 WP MM KILO 2015-09-04 03:00:00 TS 23.6778 176.622 main 2421 2421 PPPP__________ CP032015 23.6349 176.465 TY 72 976 1 115 100 85 120 65 60 55 60 35 30 30 35 1009 192 15 23.6849 176.880 5 65 970 7 100 60 7 190 120 23.7999 176.873 4 73 965 23.6773 176.585 T 70 965 5 252
2015229N08212 2015 63 WP MM KILO 2015-09-04 06:00:00 TS 23.6167 176.350 65 970 tokyo main 2452 2452 OOOO__________ hurdat_epa CP032015 23.6000 176.200 TY 70 978 1 115 100 85 120 65 60 55 60 35 30 30 35 1009 195 15 23.6000 176.600 5 65 970 7 100 60 7 200 120 0 23.7000 176.600 4 73 965 23.6000 176.300 T 70 965 6 256
2015229N08212 2015 63 WP MM KILO 2015-09-04 09:00:00 TS 23.5374 176.024 main 2483 2483 PPPP__________ CP032015 23.5425 175.865 TY 70 978 1 125 100 85 130 65 60 55 67 35 30 30 37 1009 195 15 23.5350 176.230 5 65 970 7 100 60 7 200 120 23.5849 176.280 4 70 967 23.4772 176.037 T 70 965 7 258
2015229N08212 2015 63 WP MM KILO 2015-09-04 12:00:00 TS 23.4833 175.650 65 970 tokyo main 2524 2524 OOOO__________ hurdat_epa CP032015 23.5000 175.500 TY 70 978 1 135 100 85 140 65 60 55 75 35 30 30 40 1009 195 15 23.5000 175.800 5 65 970 7 100 60 7 200 120 0 23.5000 175.900 4 68 970 23.4000 175.700 T 70 965 7 265
2015229N08212 2015 63 WP MM KILO 2015-09-04 15:00:00 TS 23.4803 175.250 main 2564 2564 PPPP__________ CP032015 23.4922 175.173 TY 70 978 1 135 100 85 140 65 60 55 75 35 30 30 40 1009 195 15 23.4924 175.358 5 65 970 7 100 60 7 200 120 23.4774 175.473 4 68 970 23.4355 175.150 T 70 965 8 271
2015229N08212 2015 63 WP MM KILO 2015-09-04 18:00:00 TS 23.5000 174.817 65 970 tokyo main 2605 2605 OOOO__________ hurdat_epa CP032015 23.5000 174.800 TY 70 978 1 135 100 85 140 65 60 55 75 35 30 30 40 1009 195 15 23.5000 174.900 5 65 970 7 100 60 7 200 120 0 23.5000 175.000 4 68 970 23.5000 174.600 T 70 965 8 272
2015229N08212 2015 63 WP MM KILO 2015-09-04 21:00:00 TS 23.5031 174.378 main 2646 2646 PPPP__________ CP032015 23.4925 174.330 TY 72 976 1 135 100 85 140 65 60 55 75 35 30 30 40 1009 195 15 23.4923 174.457 5 65 970 7 100 60 7 200 120 23.5498 174.523 4 68 970 23.4994 174.300 T 70 965 8 271
2015229N08212 2015 63 WP MM KILO 2015-09-05 00:00:00 TS 23.5167 173.900 65 970 tokyo main 2697 2697 OOOO__________ hurdat_epa CP032015 23.5000 173.800 TY 75 975 1 135 100 85 140 65 60 55 75 35 30 30 40 1009 195 15 23.5000 174.000 5 65 970 7 100 60 7 200 120 0 23.6000 174.000 4 68 970 23.5000 174.000 T 70 965 9 274
2015229N08212 2015 63 WP MM KILO 2015-09-05 03:00:00 TS 23.5620 173.365 main 2747 2747 PPPP__________ CP032015 23.5497 173.273 TY 77 972 1 130 110 107 140 70 60 57 75 37 30 30 40 1007 197 15 23.5575 173.500 5 70 962 7 100 60 7 200 120 23.6152 173.393 4 70 967 23.5502 173.480 T 70 965 10 275
2015229N08212 2015 63 WP MM KILO 2015-09-05 06:00:00 TS 23.6000 172.800 75 955 tokyo main 2808 2808 OOOO__________ hurdat_epa CP032015 23.6000 172.700 TY 80 969 1 125 120 130 140 75 60 60 75 40 30 30 40 1006 200 15 23.6000 173.000 5 75 955 7 100 60 7 200 120 0 23.6000 172.800 4 73 965 23.6000 172.900 T 70 965 10 271
2015229N08212 2015 63 WP MM KILO 2015-09-05 09:00:00 TS 23.5794 172.245 main 2870 2870 PPPP__________ CP032015 23.6002 172.042 TY 85 965 2 132 125 130 140 75 62 62 75 42 32 32 42 1006 200 15 23.5419 172.580 5 75 955 7 100 60 7 200 120 23.5345 172.342 4 73 965 23.5994 172.422 T 72 962 10 268
2015229N08212 2015 63 WP MM KILO 2015-09-05 12:00:00 TS 23.5667 171.683 75 955 tokyo main 2920 2920 OOOO__________ hurdat_epa CP032015 23.6000 171.400 TY 90 962 2 140 130 130 140 75 65 65 75 45 35 35 45 1006 200 15 23.5000 172.100 5 75 955 7 100 60 7 200 120 0 23.5000 171.900 4 73 965 23.6000 171.900 T 75 960 10 272
2015229N08212 2015 63 WP MM KILO 2015-09-05 15:00:00 TS 23.6182 171.105 main 2981 2981 PPPP__________ CP032015 23.6346 170.877 TY 92 959 2 140 130 130 140 75 65 65 75 45 35 35 45 1006 200 20 23.5780 171.408 5 77 952 7 100 65 7 225 135 23.5848 171.380 4 73 965 23.6428 171.208 T 75 960 11 277
2015229N08212 2015 63 WP MM KILO 2015-09-05 18:00:00 TS 23.7000 170.533 80 950 tokyo main 3042 3036 OOOO__________ hurdat_epa CP032015 23.7000 170.400 TY 95 957 2 140 130 130 140 75 65 65 75 45 35 35 45 1006 200 25 40 23.7000 170.700 5 80 950 7 100 70 7 250 150 0 23.7000 170.800 4 73 965 23.7000 170.500 T 75 960 10 279
2015229N08212 2015 63 WP MM KILO 2015-09-05 21:00:00 TS 23.7795 169.980 main 3036 2999 PPPP__________ CP032015 23.7924 169.893 TY 92 959 2 152 132 132 152 80 62 62 80 47 37 37 47 1006 200 23 23.8071 170.155 5 80 950 7 100 70 7 250 150 23.7502 170.135 4 73 965 23.7422 169.912 T 75 960 10 280
2015229N08212 2015 63 WP MM KILO 2015-09-06 00:00:00 TS 23.8667 169.467 80 950 tokyo main 2999 2973 OOOO__________ hurdat_epa CP032015 23.9000 169.400 TY 90 961 2 165 135 135 165 85 60 60 85 50 40 40 50 1006 200 22 35 23.9000 169.700 5 80 950 7 100 70 8 250 150 0 23.8000 169.500 4 73 965 23.8000 169.400 T 75 960 9 281
2015229N08212 2015 63 WP MM KILO 2015-09-06 03:00:00 TS 23.9517 169.025 main 2964 2943 PPPP__________ CP032015 23.9997 168.957 TY 90 960 2 165 135 135 165 85 60 60 85 50 40 40 50 1006 200 22 23.9419 169.322 5 80 950 7 100 70 8 265 155 23.8846 169.020 4 73 965 23.8847 168.935 T 75 960 8 283
2015229N08212 2015 63 WP MM KILO 2015-09-06 06:00:00 TS 24.0500 168.583 80 950 tokyo main 2933 2898 OOOO__________ hurdat_epa CP032015 24.1000 168.500 TY 90 960 2 165 135 135 165 85 60 60 85 50 40 40 50 1006 200 22 35 24.0000 168.900 5 80 950 7 100 70 8 280 160 0 24.0000 168.600 4 73 965 24.0000 168.500 T 75 960 9 285
2015229N08212 2015 63 WP MM KILO 2015-09-06 09:00:00 TS 24.1786 168.075 main 2898 2843 PPPP__________ CP032015 24.2073 167.980 TY 87 961 2 165 135 135 165 85 60 60 85 50 40 40 50 1006 200 19 24.1503 168.273 5 77 952 7 110 75 8 290 170 24.1496 168.172 4 73 965 24.1497 168.065 T 75 960 10 284
2015229N08212 2015 63 WP MM KILO 2015-09-06 12:00:00 TS 24.3000 167.517 75 955 tokyo main 2843 2786 OOOO__________ hurdat_epa CP032015 24.3000 167.400 TY 85 963 2 165 135 135 165 85 60 60 85 50 40 40 50 1006 200 17 25 24.3000 167.600 5 75 955 7 120 80 8 300 180 0 24.3000 167.700 4 73 965 24.3000 167.600 T 75 960 11 280
2015229N08212 2015 63 WP MM KILO 2015-09-06 15:00:00 TS 24.3693 166.894 main 2786 2735 PPPP__________ CP032015 24.3502 166.735 TY 85 963 2 165 137 135 170 85 60 60 90 50 40 40 55 1006 205 14 24.3498 167.020 5 75 955 7 120 80 8 300 180 24.4078 167.100 4 73 965 24.4077 167.042 T 77 957 11 277
2015229N08212 2015 63 WP MM KILO 2015-09-06 18:00:00 TS 24.4333 166.300 75 955 tokyo main 2735 2696 OOOO__________ hurdat_epa CP032015 24.4000 166.100 TY 85 963 2 165 140 135 175 85 60 60 95 50 40 40 60 1006 210 12 15 24.4000 166.500 5 75 955 7 120 80 8 300 180 0 24.5000 166.500 4 73 965 24.5000 166.500 T 80 955 10 280
2015229N08212 2015 63 WP MM KILO 2015-09-06 21:00:00 TS 24.5285 165.864 main 2696 2647 PPPP__________ CP032015 24.4844 165.635 TY 82 965 1 165 140 135 175 85 60 60 95 50 40 40 60 1006 210 13 24.5343 166.072 5 75 955 7 120 80 8 300 180 24.5917 166.072 4 73 965 24.5916 166.137 T 80 955 8 285
2015229N08212 2015 63 WP MM KILO 2015-09-07 00:00:00 TS 24.6500 165.417 75 955 tokyo main 2641 2584 OOOO__________ hurdat_epa CP032015 24.6000 165.200 TY 80 967 1 165 140 135 175 85 60 60 95 50 40 40 60 1006 210 15 20 24.7000 165.600 5 75 955 7 120 80 8 300 180 0 24.7000 165.600 4 73 965 24.7000 165.700 T 80 955 10 285
2015229N08212 2015 63 WP MM KILO 2015-09-07 03:00:00 TS 24.7977 164.791 main 2584 2528 PPPP__________ CP032015 24.7422 164.687 TY 77 967 1 165 140 135 170 85 60 60 95 50 40 40 60 1005 215 16 24.8581 164.900 5 75 955 7 120 80 8 300 180 24.8507 164.858 4 73 965 24.8509 164.923 T 80 955 12 284
2015229N08212 2015 63 WP MM KILO 2015-09-07 06:00:00 TS 24.9500 164.117 75 955 tokyo main 2513 2457 OOOO__________ hurdat_epa CP032015 24.9000 164.100 TY 75 967 1 165 140 135 165 85 60 60 95 50 40 40 60 1004 220 17 25 25.0000 164.200 5 75 955 7 120 80 8 300 180 0 25.0000 164.100 4 73 965 25.0000 164.100 T 80 955 12 283
2015229N08212 2015 63 WP MM KILO 2015-09-07 09:00:00 TS 25.0671 163.514 main 2457 2409 PPPP__________ CP032015 25.0427 163.407 TY 75 967 1 175 145 142 175 100 70 70 105 55 45 45 60 1004 220 17 25.0917 163.734 5 72 960 7 120 80 8 300 180 25.0916 163.592 4 70 967 25.0915 163.534 T 80 955 11 283
2015229N08212 2015 63 WP MM KILO 2015-09-07 12:00:00 TS 25.2000 162.917 70 965 tokyo main 2401 2339 OOOO__________ hurdat_epa CP032015 25.2000 162.700 TY 75 967 1 185 150 150 185 115 80 80 115 60 50 50 60 1004 220 17 25 25.2000 163.300 5 70 965 8 120 80 8 300 180 0 25.2000 163.100 4 68 970 25.2000 163.000 T 80 955 11 286
2015229N08212 2015 63 WP MM KILO 2015-09-07 15:00:00 TS 25.3771 162.305 main 2339 2276 PPPP__________ CP032015 25.3768 162.107 TY 72 969 1 180 150 150 185 110 80 80 115 57 50 50 60 1004 220 17 25.3769 162.767 5 70 965 8 120 80 8 300 180 25.3701 162.430 4 68 970 25.3851 162.315 T 77 957 12 289
2015229N08212 2015 63 WP MM KILO 2015-09-07 18:00:00 TS 25.6000 161.650 70 965 tokyo main 2276 2206 OOOO__________ hurdat_epa CP032015 25.6000 161.500 TY 70 971 1 175 150 150 185 105 80 80 115 55 50 50 60 1004 220 17 25.6000 162.100 5 70 965 8 120 80 8 300 180 0 25.6000 161.700 4 68 970 25.6000 161.600 T 75 960 13 291
2015229N08212 2015 63 WP MM KILO 2015-09-07 21:00:00 TS 25.8636 160.919 main 2192 2121 PPPP__________ CP032015 25.8926 160.765 TY 70 970 1 175 150 150 185 105 80 80 115 55 50 50 60 1004 220 17 25.8355 161.230 5 70 965 8 120 80 8 300 180 25.8844 161.015 4 68 970 25.7842 160.972 T 72 962 15 292
2015229N08212 2015 63 WP MM KILO 2015-09-08 00:00:00 TS 26.1500 160.150 70 965 tokyo main 2115 2037 OOOO__________ hurdat_epa CP032015 26.2000 160.000 TY 70 970 1 175 150 150 185 105 80 80 115 55 50 50 60 1004 220 17 26.1000 160.300 5 70 965 8 120 80 8 300 180 0 26.2000 160.300 4 68 970 26.0000 160.300 T 70 965 15 292
2015229N08212 2015 63 WP MM KILO 2015-09-08 03:00:00 TS 26.4272 159.385 main 2037 1961 PPPP__________ CP032015 26.4569 159.299 TY 67 971 1 137 110 117 150 72 60 60 77 52 47 47 55 1003 215 18 26.3995 159.470 5 70 965 8 110 80 8 290 180 26.5151 159.493 4 68 970 26.2780 159.450 T 70 965 15 292
2015229N08212 2015 63 WP MM KILO 2015-09-08 06:00:00 TS 26.7000 158.633 70 965 tokyo main 1953 1891 OOOO__________ hurdat_epa CP032015 26.7000 158.600 TY 65 972 1 100 70 85 115 40 40 40 40 50 45 45 50 1003 210 20 20 26.7000 158.700 5 70 965 8 100 80 8 280 180 0 26.8000 158.700 4 68 970 26.6000 158.600 T 70 965 14 291
2015229N08212 2015 63 WP MM KILO 2015-09-08 09:00:00 TS 26.9329 157.912 main 1883 1815 PPPP__________ CP032015 26.9200 157.842 TY 65 973 1 162 110 107 142 87 60 57 75 50 45 45 50 1004 230 20 26.9270 157.976 5 70 965 8 100 80 8 260 180 26.9768 158.034 4 68 970 26.9340 157.934 T 67 967 14 292
2015229N08212 2015 63 WP MM KILO 2015-09-08 12:00:00 TS 27.2167 157.217 70 965 tokyo main 1807 1733 OOOO__________ hurdat_epa CP032015 27.2000 157.100 TY 65 974 1 225 150 130 170 135 80 75 110 50 45 45 50 1005 250 20 30 27.2000 157.300 5 70 965 8 100 80 8 240 180 0 27.2000 157.400 4 68 970 27.3000 157.300 T 65 970 14 299
2015229N08212 2015 63 WP MM KILO 2015-09-08 15:00:00 TS 27.6281 156.527 main 1725 1645 PPPP__________ CP032015 27.6196 156.427 TY 65 974 1 225 150 130 170 135 80 75 110 50 45 45 50 1005 250 20 27.6121 156.642 5 67 967 8 100 80 8 240 180 27.6124 156.700 4 66 972 27.6853 156.535 T 65 970 15 306
2015229N08212 2015 63 WP MM KILO 2015-09-08 18:00:00 TS 28.1000 155.867 65 970 tokyo main 1645 1571 OOOO__________ hurdat_epa CP032015 28.1000 155.800 TY 65 974 1 225 150 130 170 135 80 75 110 50 45 45 50 1005 250 20 28.1000 156.000 5 65 970 8 100 80 8 240 180 0 28.1000 156.000 4 64 975 28.1000 155.800 T 65 970 15 310
2015229N08212 2015 63 WP MM KILO 2015-09-08 21:00:00 TS 28.5653 155.254 main 1565 1492 PPPP__________ CP032015 28.5495 155.199 TY 65 974 1 225 150 130 170 135 80 75 110 50 45 45 50 1005 250 30 28.6220 155.365 5 65 970 8 100 80 8 240 180 28.5647 155.335 4 64 975 28.5568 155.227 T 62 972 14 311
2015229N08212 2015 63 WP MM KILO 2015-09-09 00:00:00 TS 29.0167 154.650 65 970 tokyo main 1492 1410 OOOO__________ hurdat_epa CP032015 29.0000 154.600 TY 65 974 1 225 150 130 170 135 80 75 110 50 45 45 50 1005 250 40 29.1000 154.700 5 65 970 8 100 80 8 240 180 0 29.0000 154.700 4 64 975 29.0000 154.700 STS 60 975 14 307
2015229N08212 2015 63 WP MM KILO 2015-09-09 03:00:00 TS 29.4084 153.987 main 1410 1337 PPPP__________ CP032015 29.4574 153.950 TY 65 973 1 212 135 120 160 135 80 75 110 50 45 45 50 1005 245 47 29.4006 153.904 5 65 970 8 100 80 8 240 180 29.3423 154.077 4 64 975 29.3350 154.092 STS 60 975 14 305
2015229N08212 2015 63 WP MM KILO 2015-09-09 06:00:00 TS 29.8000 153.350 65 970 tokyo main 1329 1273 OOOO__________ hurdat_epa CP032015 29.9000 153.300 TY 65 973 1 200 120 110 150 135 80 75 110 50 45 45 50 1005 240 55 15 29.7000 153.200 5 65 970 8 100 80 8 240 180 0 29.7000 153.500 4 64 975 29.7000 153.500 STS 60 975 13 310
2015229N08212 2015 63 WP MM KILO 2015-09-09 09:00:00 TS 30.2502 152.822 main 1259 1195 PPPP__________ CP032015 30.2996 152.692 TY 62 974 0 220 165 140 175 115 95 80 120 1005 240 62 30.1763 152.834 5 62 972 8 100 80 8 240 180 30.1845 153.000 4 61 977 30.2416 153.022 STS 60 975 13 315
2015229N08212 2015 63 WP MM KILO 2015-09-09 12:00:00 TS 30.7167 152.300 60 975 tokyo main 1195 1123 OOOO__________ hurdat_epa CP032015 30.7000 152.100 TS 60 976 0 240 210 170 200 95 110 85 130 1005 240 70 10 30.7000 152.500 4 60 975 8 100 80 8 240 180 0 30.7000 152.500 3 58 980 30.8000 152.500 STS 60 975 13 312
2015229N08212 2015 63 WP MM KILO 2015-09-09 15:00:00 TS 31.1510 151.663 main 1117 1046 PPPP__________ CP032015 31.1350 151.477 TS 57 977 0 240 210 170 200 95 110 85 130 1005 240 70 31.1504 151.887 4 60 975 8 100 80 8 260 180 31.1424 151.914 3 58 980 31.2083 151.742 STS 57 977 14 309
2015229N08212 2015 63 WP MM KILO 2015-09-09 18:00:00 TS 31.6000 151.033 60 975 tokyo main 1038 970 OOOO__________ hurdat_epa CP032015 31.6000 150.900 TS 55 979 0 240 210 170 200 95 110 85 130 1005 240 70 10 31.6000 151.200 4 60 975 8 100 80 8 280 180 0 31.6000 151.300 3 58 980 31.6000 151.000 STS 55 980 14 313
2015229N08212 2015 63 WP MM KILO 2015-09-09 21:00:00 TS 32.0857 150.485 main 970 912 PPPP__________ CP032015 32.0847 150.412 TS 55 979 0 215 192 172 195 102 95 82 120 1005 270 72 32.0627 150.533 4 60 975 8 100 80 8 280 180 32.1353 150.648 3 53 982 32.0618 150.496 STS 52 982 13 320
2015229N08212 2015 63 WP MM KILO 2015-09-10 00:00:00 TS 32.6167 150.033 60 975 tokyo main 903 851 OOOO__________ hurdat_epa CP032015 32.6000 150.000 TS 55 979 0 190 175 175 190 110 80 80 110 1005 300 75 32.6000 150.000 4 60 975 8 100 80 8 280 180 0 32.7000 150.100 3 48 985 32.6000 150.100 STS 50 985 13 329
2015229N08212 2015 63 WP MM KILO 2015-09-10 03:00:00 TS 33.1905 149.694 main 851 803 PPPP__________ CP032015 33.1272 149.642 TS 55 978 0 190 175 175 190 85 70 70 85 1005 300 75 33.2769 149.753 4 60 975 8 100 80 8 290 180 33.2419 149.804 3 46 987 33.2424 149.685 STS 50 985 13 336
2015229N08212 2015 63 WP MM KILO 2015-09-10 06:00:00 TS 33.8000 149.400 60 975 tokyo main 803 761 OOOO__________ hurdat_epa CP032015 33.7000 149.300 TS 55 978 0 190 175 175 190 60 60 60 60 1005 300 75 34.0000 149.600 4 60 975 1 100 80 1 300 180 0 33.8000 149.600 2 44 990 33.9000 149.300 STS 50 985 13 335
2015229N08212 2015 63 WP MM KILO 2015-09-10 09:00:00 TS 34.3812 149.042 main 749 709 PPPP__________ CP032015 34.2975 148.907 TS 55 978 0 200 192 172 180 60 60 60 60 1005 300 72 34.6351 149.300 4 60 975 1 100 80 1 325 180 34.3476 149.292 2 44 990 34.4123 148.941 STS 50 985 14 335
2015229N08212 2015 63 WP MM KILO 2015-09-10 12:00:00 TS 35.0500 148.683 60 975 tokyo main 708 671 OOOO__________ hurdat_epa CP032015 35.0000 148.500 TS 55 978 0 210 210 170 170 60 60 60 60 1006 300 70 35.3000 149.000 4 60 975 1 100 80 1 350 180 0 35.0000 149.000 2 44 990 35.0000 148.600 STS 50 985 16 340
2015229N08212 2015 63 WP MM KILO 2015-09-10 15:00:00 TS 35.8945 148.358 main 666 603 PPPP__________ CP032015 35.8701 148.078 TS 55 976 0 210 195 160 160 60 60 60 60 1004 270 70 36.0619 148.842 4 60 975 1 100 80 1 350 180 35.8544 148.842 2 44 990 35.8401 148.228 STS 50 985 18 344
2015229N08212 2015 63 WP MM KILO 2015-09-10 18:00:00 TS 36.8174 148.039 60 975 tokyo main 595 521 OOOO__________ hurdat_epa CP032015 36.8000 147.700 TS 55 974 0 210 180 150 150 60 60 60 60 1002 240 70 36.9000 148.600 4 60 975 2 100 80 2 350 180 0 36.8000 148.600 2 44 990 36.8000 147.900 STS 50 985 19 342
2015229N08212 2015 63 WP MM KILO 2015-09-10 21:00:00 TS 37.6734 147.624 main 516 461 PPPP__________ CP032015 37.6199 147.375 TS 55 973 0 217 180 150 150 65 50 50 65 1002 235 72 37.7787 147.989 4 60 975 2 100 80 2 375 180 37.6863 147.981 2 44 990 37.7574 147.670 STS 50 985 19 341
2015229N08212 2015 63 WP MM KILO 2015-09-11 00:00:00 TS 38.5667 147.290 60 975 tokyo main 458 427 OOOO__________ hurdat_epa CP032015 38.5000 147.200 TS 55 973 0 225 180 150 150 70 40 40 70 1002 230 75 38.7000 147.400 4 60 975 2 100 80 2 400 180 0 38.6000 147.400 2 44 990 38.7000 147.500 STS 50 985 19 350
2015229N08212 2015 63 WP MM KILO 2015-09-11 03:00:00 TS 39.5451 147.189 main 427 325 PPP___________ CP032015 39.5322 147.196 TS 52 974 0 225 180 150 150 1002 230 72 39.6043 147.151 4 60 975 2 100 80 2 400 180 39.5244 147.208 2 44 990 STS 21 1
2015229N08212 2015 63 WP MM KILO 2015-09-11 06:00:00 MX 40.6529 147.329 60 975 tokyo main 315 231 OOO___________ hurdat_epa CP032015 40.7000 147.400 EX 50 975 -4 225 180 150 150 1002 230 70 40.6000 147.200 4 60 975 2 100 80 2 400 180 0 40.6000 147.300 2 44 990 24 9
2015229N08212 2015 63 WP MM KILO 2015-09-11 09:00:00 MX 41.8952 147.665 main 230 169 PPP___________ CP032015 41.9731 147.792 EX 47 976 -4 225 180 150 150 1002 230 70 41.7331 147.537 4 977 2 2 41.9405 147.602 2 41 990 26 12
2015229N08212 2015 63 WP MM KILO 2015-09-11 12:00:00 MX 43.2273 148.082 980 tokyo main 169 57 OOO___________ hurdat_epa CP032015 43.3000 148.300 EX 45 977 -4 225 180 150 150 1002 230 70 43.0000 148.000 6 980 0 0 0 43.4000 148.000 2 38 990 27 9
2015229N08212 2015 63 WP MM KILO 2015-09-11 15:00:00 MX 44.5843 148.244 main 50 0 _PP___________ CP032015 EX -4 44.3545 148.276 6 982 0 0 44.8142 148.211 2 38 990 28 7
2015229N08212 2015 63 WP MM KILO 2015-09-11 18:00:00 ET 46.0000 148.550 984 tokyo main 66 66 _OO___________ 45.8000 148.600 6 984 0 0 0 46.2000 148.500 9 38 990 28 12
2015229N08212 2015 63 WP MM KILO 2015-09-11 21:00:00 ET 47.3024 149.082 main 157 157 _PP___________ 47.1799 149.112 6 986 0 0 47.4249 149.053 9 36 992 29 17
2015229N08212 2015 63 WP MM KILO 2015-09-12 00:00:00 ET 48.8000 149.800 988 tokyo main 301 301 _OO___________ 48.8000 149.800 6 988 0 0 0 48.8000 149.800 9 34 995 37 16
2015229N08212 2015 63 WP MM KILO 2015-09-12 03:00:00 ET 50.8650 150.675 main 322 302 _PP___________ 51.0602 150.677 6 988 0 0 50.6698 150.673 9 34 995 43 16
2015229N08212 2015 63 WP MM KILO 2015-09-12 06:00:00 ET 52.9429 151.700 988 tokyo main 294 200 _OO___________ 53.2000 151.700 6 988 0 0 0 52.6000 151.700 9 34 995 37 20
2015229N08212 2015 63 WP MM KILO 2015-09-12 09:00:00 ET 54.3443 152.733 main 200 121 _PP___________ 54.4107 152.692 6 990 0 0 54.2116 152.815 9 34 995 28 26
2015229N08212 2015 63 WP MM KILO 2015-09-12 12:00:00 ET 55.4400 153.760 992 tokyo main 115 79 _OO___________ 55.4000 153.700 6 992 0 0 0 55.6000 154.000 9 34 995 27 25
2015229N08212 2015 63 WP MM KILO 2015-09-12 15:00:00 ET 56.8472 154.750 main 73 72 _P____________ 56.8472 154.750 6 992 0 0 9 31 23
2015229N08212 2015 63 WP MM KILO 2015-09-12 18:00:00 ET 58.3000 156.000 992 tokyo main 76 76 _O____________ 58.3000 156.000 6 992 0 0 0 30 29
2015229N08212 2015 63 WP MM KILO 2015-09-12 21:00:00 ET 59.4936 157.578 main 136 53 _P____________ 59.4936 157.578 6 992 0 0 28 38
2015229N08212 2015 63 WP MM KILO 2015-09-13 00:00:00 ET 60.5000 159.400 992 tokyo main 44 _O____________ 60.5000 159.400 6 992 0 0 0 27 42

IBTrACS Databaseについて

本データベースは、米国NOAAが公開する1842年以降の世界の熱帯低気圧のベストトラックデータアーカイブInternational Best Track Archive for Climate Stewardship (IBTrACS)を、ウェブで閲覧しやすい形式に変換したものです。

最終更新日:2021-12-06